Terminal Aerodrome Forecast
Issued by NWS Blacksburg, VA

Current Version | Previous Version | Text Only | Print | Product List | Glossary Off
Versions: 1 2 3 4 5 6 7 8 9 10 11 12 13 14 15 16 17 18 19 20 21 22 23 24 25 26

964
FTUS41 KRNK 261136
TAFBLF
TAF
KBLF 261136Z 2612/2712 26005KT P6SM SCT060
     FM261400 28011G21KT P6SM SCT050 SCT150
     FM270000 29006KT P6SM BKN120=

USA.gov is the U.S. government's official web portal to all federal, state and local government web resources and services.